sensor_id;sensor_type;location;lat;lon;timestamp;temperature;humidity
57719;DHT22;43561;50.090;18.522;2023-11-21T00:01:00;8.10;99.90
57719;DHT22;43561;50.090;18.522;2023-11-21T00:11:02;8.20;99.90
57719;DHT22;43561;50.090;18.522;2023-11-21T00:21:05;8.20;99.90
57719;DHT22;43561;50.090;18.522;2023-11-21T00:31:07;8.20;99.90
57719;DHT22;43561;50.090;18.522;2023-11-21T00:41:09;8.20;99.90
57719;DHT22;43561;50.090;18.522;2023-11-21T00:51:11;8.10;99.90
57719;DHT22;43561;50.090;18.522;2023-11-21T01:01:13;8.10;99.90
57719;DHT22;43561;50.090;18.522;2023-11-21T01:11:15;8.10;99.90
57719;DHT22;43561;50.090;18.522;2023-11-21T01:21:17;8.00;99.90
57719;DHT22;43561;50.090;18.522;2023-11-21T01:31:19;8.00;99.90
57719;DHT22;43561;50.090;18.522;2023-11-21T01:52:50;7.80;99.90
57719;DHT22;43561;50.090;18.522;2023-11-21T02:02:52;7.90;99.90
57719;DHT22;43561;50.090;18.522;2023-11-21T02:12:55;7.90;99.90
57719;DHT22;43561;50.090;18.522;2023-11-21T02:22:58;7.80;99.90
57719;DHT22;43561;50.090;18.522;2023-11-21T02:33:01;7.70;99.90
57719;DHT22;43561;50.090;18.522;2023-11-21T02:43:05;7.60;99.90
57719;DHT22;43561;50.090;18.522;2023-11-21T02:53:07;7.50;99.90
57719;DHT22;43561;50.090;18.522;2023-11-21T03:03:09;7.60;99.90
57719;DHT22;43561;50.090;18.522;2023-11-21T03:13:11;7.50;99.90
57719;DHT22;43561;50.090;18.522;2023-11-21T03:23:14;7.50;99.90
57719;DHT22;43561;50.090;18.522;2023-11-21T03:33:16;7.40;99.90
57719;DHT22;43561;50.090;18.522;2023-11-21T03:43:17;7.30;99.90
57719;DHT22;43561;50.090;18.522;2023-11-21T03:53:19;7.20;99.90
57719;DHT22;43561;50.090;18.522;2023-11-21T04:03:21;7.10;99.90
57719;DHT22;43561;50.090;18.522;2023-11-21T04:13:24;7.00;99.90
57719;DHT22;43561;50.090;18.522;2023-11-21T04:23:27;7.00;99.90
57719;DHT22;43561;50.090;18.522;2023-11-21T04:33:29;7.00;99.90
57719;DHT22;43561;50.090;18.522;2023-11-21T04:43:31;7.00;99.90
57719;DHT22;43561;50.090;18.522;2023-11-21T04:53:33;7.00;99.90
57719;DHT22;43561;50.090;18.522;2023-11-21T05:03:35;7.10;99.90
57719;DHT22;43561;50.090;18.522;2023-11-21T05:13:37;7.10;99.90
57719;DHT22;43561;50.090;18.522;2023-11-21T05:23:39;7.10;99.90
57719;DHT22;43561;50.090;18.522;2023-11-21T05:33:41;7.10;99.90
57719;DHT22;43561;50.090;18.522;2023-11-21T05:43:43;7.20;99.90
57719;DHT22;43561;50.090;18.522;2023-11-21T05:53:45;7.20;99.90
57719;DHT22;43561;50.090;18.522;2023-11-21T06:03:47;7.20;99.90
57719;DHT22;43561;50.090;18.522;2023-11-21T06:13:50;7.20;99.90
57719;DHT22;43561;50.090;18.522;2023-11-21T06:23:52;7.20;99.90
57719;DHT22;43561;50.090;18.522;2023-11-21T06:33:54;7.10;99.90
57719;DHT22;43561;50.090;18.522;2023-11-21T06:43:56;7.10;99.90
57719;DHT22;43561;50.090;18.522;2023-11-21T06:53:58;7.10;99.90
57719;DHT22;43561;50.090;18.522;2023-11-21T07:04:00;7.10;99.90
57719;DHT22;43561;50.090;18.522;2023-11-21T07:14:02;7.00;99.90
57719;DHT22;43561;50.090;18.522;2023-11-21T07:24:05;7.10;99.90
57719;DHT22;43561;50.090;18.522;2023-11-21T07:34:07;7.10;99.90
57719;DHT22;43561;50.090;18.522;2023-11-21T07:44:09;7.40;99.90
57719;DHT22;43561;50.090;18.522;2023-11-21T07:54:11;8.10;99.90
57719;DHT22;43561;50.090;18.522;2023-11-21T08:04:13;8.40;99.90
57719;DHT22;43561;50.090;18.522;2023-11-21T08:14:17;8.20;99.90
57719;DHT22;43561;50.090;18.522;2023-11-21T08:24:19;10.10;99.90
57719;DHT22;43561;50.090;18.522;2023-11-21T08:34:21;8.90;99.90
57719;DHT22;43561;50.090;18.522;2023-11-21T08:44:23;8.50;99.90
57719;DHT22;43561;50.090;18.522;2023-11-21T08:54:25;8.50;99.90
57719;DHT22;43561;50.090;18.522;2023-11-21T09:04:27;8.60;99.90
57719;DHT22;43561;50.090;18.522;2023-11-21T09:14:29;8.80;99.90
57719;DHT22;43561;50.090;18.522;2023-11-21T09:24:32;8.90;99.90
57719;DHT22;43561;50.090;18.522;2023-11-21T09:34:34;9.10;99.90
57719;DHT22;43561;50.090;18.522;2023-11-21T09:44:46;9.10;99.90
57719;DHT22;43561;50.090;18.522;2023-11-21T09:54:51;9.00;99.90
57719;DHT22;43561;50.090;18.522;2023-11-21T10:04:53;9.10;99.90
57719;DHT22;43561;50.090;18.522;2023-11-21T10:14:57;9.00;99.90
57719;DHT22;43561;50.090;18.522;2023-11-21T10:24:59;9.20;99.90
57719;DHT22;43561;50.090;18.522;2023-11-21T10:35:01;8.90;99.90
57719;DHT22;43561;50.090;18.522;2023-11-21T10:45:06;8.70;99.90
57719;DHT22;43561;50.090;18.522;2023-11-21T10:55:18;8.60;99.90
57719;DHT22;43561;50.090;18.522;2023-11-21T11:05:22;8.50;99.90
57719;DHT22;43561;50.090;18.522;2023-11-21T11:15:26;8.50;99.90
57719;DHT22;43561;50.090;18.522;2023-11-21T11:25:53;8.40;99.90
57719;DHT22;43561;50.090;18.522;2023-11-21T11:36:14;8.30;99.90
57719;DHT22;43561;50.090;18.522;2023-11-21T11:46:18;8.20;99.90
57719;DHT22;43561;50.090;18.522;2023-11-21T11:56:29;8.10;99.90
57719;DHT22;43561;50.090;18.522;2023-11-21T12:06:34;7.90;99.90
57719;DHT22;43561;50.090;18.522;2023-11-21T12:16:37;7.70;99.90
57719;DHT22;43561;50.090;18.522;2023-11-21T12:26:40;7.50;99.90
57719;DHT22;43561;50.090;18.522;2023-11-21T12:36:42;7.40;99.90
57719;DHT22;43561;50.090;18.522;2023-11-21T12:46:44;7.70;99.90
57719;DHT22;43561;50.090;18.522;2023-11-21T12:56:46;7.40;99.90
57719;DHT22;43561;50.090;18.522;2023-11-21T13:06:48;7.50;99.90
57719;DHT22;43561;50.090;18.522;2023-11-21T13:16:50;7.80;99.90
57719;DHT22;43561;50.090;18.522;2023-11-21T13:26:52;7.90;99.90
57719;DHT22;43561;50.090;18.522;2023-11-21T13:36:54;8.10;99.90
57719;DHT22;43561;50.090;18.522;2023-11-21T13:46:56;8.20;99.90
57719;DHT22;43561;50.090;18.522;2023-11-21T13:56:58;8.10;99.90
57719;DHT22;43561;50.090;18.522;2023-11-21T14:07:00;8.00;99.90
57719;DHT22;43561;50.090;18.522;2023-11-21T14:17:02;8.00;99.90
57719;DHT22;43561;50.090;18.522;2023-11-21T14:27:04;7.90;99.90
57719;DHT22;43561;50.090;18.522;2023-11-21T14:37:06;7.80;99.90
57719;DHT22;43561;50.090;18.522;2023-11-21T14:47:08;7.90;99.90
57719;DHT22;43561;50.090;18.522;2023-11-21T14:57:11;7.70;99.90
57719;DHT22;43561;50.090;18.522;2023-11-21T15:07:13;7.70;99.90
57719;DHT22;43561;50.090;18.522;2023-11-21T15:17:16;7.60;99.90
57719;DHT22;43561;50.090;18.522;2023-11-21T15:27:18;7.50;99.90
57719;DHT22;43561;50.090;18.522;2023-11-21T15:37:20;7.50;99.90
57719;DHT22;43561;50.090;18.522;2023-11-21T15:47:22;7.40;99.90
57719;DHT22;43561;50.090;18.522;2023-11-21T15:57:24;7.30;99.90
57719;DHT22;43561;50.090;18.522;2023-11-21T16:07:26;7.30;99.90
57719;DHT22;43561;50.090;18.522;2023-11-21T16:17:28;7.30;99.90
57719;DHT22;43561;50.090;18.522;2023-11-21T16:27:30;7.30;99.90
57719;DHT22;43561;50.090;18.522;2023-11-21T16:37:32;7.10;99.90
57719;DHT22;43561;50.090;18.522;2023-11-21T16:47:34;7.10;99.90
57719;DHT22;43561;50.090;18.522;2023-11-21T16:57:36;7.10;99.90
57719;DHT22;43561;50.090;18.522;2023-11-21T17:07:38;7.00;99.90
57719;DHT22;43561;50.090;18.522;2023-11-21T17:17:40;7.00;99.90
57719;DHT22;43561;50.090;18.522;2023-11-21T17:27:42;6.70;99.90
57719;DHT22;43561;50.090;18.522;2023-11-21T17:37:44;6.70;99.90
57719;DHT22;43561;50.090;18.522;2023-11-21T17:47:46;6.70;99.90
57719;DHT22;43561;50.090;18.522;2023-11-21T17:57:48;6.50;99.90
57719;DHT22;43561;50.090;18.522;2023-11-21T18:07:50;6.30;99.90
57719;DHT22;43561;50.090;18.522;2023-11-21T18:17:52;5.90;99.90
57719;DHT22;43561;50.090;18.522;2023-11-21T18:27:54;5.80;99.90
57719;DHT22;43561;50.090;18.522;2023-11-21T18:37:56;5.60;99.90
57719;DHT22;43561;50.090;18.522;2023-11-21T18:47:58;5.30;99.90
57719;DHT22;43561;50.090;18.522;2023-11-21T18:58:01;5.30;99.90
57719;DHT22;43561;50.090;18.522;2023-11-21T19:08:03;4.90;99.90
57719;DHT22;43561;50.090;18.522;2023-11-21T19:18:05;4.50;99.90
57719;DHT22;43561;50.090;18.522;2023-11-21T19:28:07;4.40;99.90
57719;DHT22;43561;50.090;18.522;2023-11-21T19:38:09;4.20;99.90
57719;DHT22;43561;50.090;18.522;2023-11-21T19:48:11;3.90;99.90
57719;DHT22;43561;50.090;18.522;2023-11-21T19:58:13;3.70;99.90
57719;DHT22;43561;50.090;18.522;2023-11-21T20:08:15;3.40;99.90
57719;DHT22;43561;50.090;18.522;2023-11-21T20:18:17;3.20;99.90
57719;DHT22;43561;50.090;18.522;2023-11-21T20:28:19;3.00;99.90
57719;DHT22;43561;50.090;18.522;2023-11-21T20:38:21;2.80;99.90
57719;DHT22;43561;50.090;18.522;2023-11-21T20:48:23;2.70;99.90
57719;DHT22;43561;50.090;18.522;2023-11-21T20:58:25;2.60;99.90
57719;DHT22;43561;50.090;18.522;2023-11-21T21:08:27;2.60;99.90
57719;DHT22;43561;50.090;18.522;2023-11-21T21:18:29;2.50;99.90
57719;DHT22;43561;50.090;18.522;2023-11-21T21:28:31;2.20;99.90
57719;DHT22;43561;50.090;18.522;2023-11-21T21:38:33;1.80;99.90
57719;DHT22;43561;50.090;18.522;2023-11-21T21:48:36;1.90;99.90
57719;DHT22;43561;50.090;18.522;2023-11-21T21:58:38;2.00;99.90
57719;DHT22;43561;50.090;18.522;2023-11-21T22:08:40;1.80;99.90
57719;DHT22;43561;50.090;18.522;2023-11-21T22:18:42;1.60;99.90
57719;DHT22;43561;50.090;18.522;2023-11-21T22:28:44;1.60;99.90
57719;DHT22;43561;50.090;18.522;2023-11-21T22:38:45;1.40;99.90
57719;DHT22;43561;50.090;18.522;2023-11-21T22:48:47;1.30;99.90
57719;DHT22;43561;50.090;18.522;2023-11-21T22:58:49;1.20;99.90
57719;DHT22;43561;50.090;18.522;2023-11-21T23:08:51;1.10;99.90
57719;DHT22;43561;50.090;18.522;2023-11-21T23:18:53;1.00;99.90
57719;DHT22;43561;50.090;18.522;2023-11-21T23:28:55;1.10;99.90
57719;DHT22;43561;50.090;18.522;2023-11-21T23:38:57;0.90;99.90
57719;DHT22;43561;50.090;18.522;2023-11-21T23:48:59;0.80;99.90
57719;DHT22;43561;50.090;18.522;2023-11-21T23:59:01;0.80;99.90
